Time;durP1;ratioP1;P1;durP2;ratioP2;P2;SDS_P1;SDS_P2;PMS_P1;PMS_P2;Temp;Humidity;BMP_temperature;BMP_pressure;BME280_temperature;BME280_humidity;BME280_pressure;Samples;Min_cycle;Max_cycle;Signal;HPM_P1;HPM_P2
2022/11/30 00:01:51;;;;;;;;;;;8.00;99.90;;;;;;5110240;28;19954;-68
2022/11/30 00:04:17;;;;;;;;;;;7.90;99.90;;;;;;5101667;28;20408;-69
2022/11/30 00:06:42;;;;;;;;;;;7.90;99.90;;;;;;5078546;28;20320;-68
2022/11/30 00:09:08;;;;;;;;;;;7.90;99.90;;;;;;5096586;28;19915;-69
2022/11/30 00:11:33;;;;;;;;;;;8.00;99.90;;;;;;5096473;28;19966;-69
2022/11/30 00:13:59;;;;;;;;;;;8.00;99.90;;;;;;5096502;28;19931;-69
2022/11/30 00:16:26;;;;;;;;;;;7.90;99.90;;;;;;5096444;28;19959;-69
2022/11/30 00:18:51;;;;;;;;;;;8.00;99.90;;;;;;5078250;28;20330;-69
2022/11/30 00:21:17;;;;;;;;;;;7.90;99.90;;;;;;5078419;28;19909;-68
2022/11/30 00:23:43;;;;;;;;;;;8.00;99.90;;;;;;5096274;28;20366;-68
2022/11/30 00:26:10;;;;;;;;;;;8.00;99.90;;;;;;5096259;28;20285;-68
2022/11/30 00:28:36;;;;;;;;;;;7.90;99.90;;;;;;5096160;28;19961;-68
2022/11/30 00:31:03;;;;;;;;;;;8.00;99.90;;;;;;5096118;28;20374;-68
2022/11/30 00:33:31;;;;;;;;;;;7.90;99.90;;;;;;5096068;28;19912;-68
2022/11/30 00:35:58;;;;;;;;;;;7.80;99.90;;;;;;5096051;28;20471;-68
2022/11/30 00:38:24;;;;;;;;;;;7.70;99.90;;;;;;5096039;28;19908;-68
2022/11/30 00:40:50;;;;;;;;;;;7.60;99.90;;;;;;5077976;28;19915;-68
2022/11/30 00:43:15;;;;;;;;;;;7.60;99.90;;;;;;5096163;28;19957;-68
2022/11/30 00:45:41;;;;;;;;;;;7.50;99.90;;;;;;5095817;28;19918;-68
2022/11/30 00:48:06;;;;;;;;;;;7.50;99.90;;;;;;5095817;28;19908;-68
2022/11/30 00:50:32;;;;;;;;;;;7.50;99.90;;;;;;5095763;28;19915;-69
2022/11/30 00:52:58;;;;;;;;;;;7.40;99.90;;;;;;5095471;28;19969;-68
2022/11/30 00:55:23;;;;;;;;;;;7.40;99.90;;;;;;5077542;28;19946;-70
2022/11/30 00:57:49;;;;;;;;;;;7.40;99.90;;;;;;5095627;28;19948;-66
2022/11/30 01:00:14;;;;;;;;;;;7.40;99.90;;;;;;5077461;28;19915;-67
2022/11/30 01:02:40;;;;;;;;;;;7.30;99.90;;;;;;5095515;28;19908;-69
2022/11/30 01:05:05;;;;;;;;;;;7.30;99.90;;;;;;5095491;28;19908;-69
2022/11/30 01:07:31;;;;;;;;;;;7.30;99.90;;;;;;5095424;28;19912;-69
2022/11/30 01:09:56;;;;;;;;;;;7.20;99.90;;;;;;5095329;28;19912;-69
2022/11/30 01:12:21;;;;;;;;;;;7.20;99.90;;;;;;5095490;28;19912;-69
2022/11/30 01:14:47;;;;;;;;;;;7.20;99.90;;;;;;5076890;28;19958;-67
2022/11/30 01:17:12;;;;;;;;;;;7.20;99.90;;;;;;5094683;28;19909;-68
2022/11/30 01:19:38;;;;;;;;;;;7.20;99.90;;;;;;5077211;28;20021;-66
2022/11/30 01:22:03;;;;;;;;;;;7.20;99.90;;;;;;5095173;28;19908;-69
2022/11/30 01:24:29;;;;;;;;;;;7.10;99.90;;;;;;5077045;28;19908;-68
2022/11/30 01:26:54;;;;;;;;;;;7.10;99.90;;;;;;5095078;28;19915;-68
2022/11/30 01:29:20;;;;;;;;;;;7.10;99.90;;;;;;5076901;28;20383;-68
2022/11/30 01:31:45;;;;;;;;;;;7.10;99.90;;;;;;5076771;28;19914;-66
2022/11/30 01:34:11;;;;;;;;;;;7.00;99.90;;;;;;5094916;28;19912;-68
2022/11/30 01:36:37;;;;;;;;;;;7.00;99.90;;;;;;5094887;28;20392;-67
2022/11/30 01:39:05;;;;;;;;;;;7.00;99.90;;;;;;5094853;28;19908;-68
2022/11/30 01:41:31;;;;;;;;;;;7.00;99.90;;;;;;5094780;28;20011;-68
2022/11/30 01:44:16;;;;;;;;;;;7.00;99.90;;;;;;5094738;28;19908;-68
2022/11/30 01:46:51;;;;;;;;;;;7.00;99.90;;;;;;5094561;28;19909;-68
2022/11/30 01:49:19;;;;;;;;;;;7.00;99.90;;;;;;5094943;28;20281;-68
2022/11/30 01:51:46;;;;;;;;;;;6.90;99.90;;;;;;5076162;28;19927;-68
2022/11/30 01:54:13;;;;;;;;;;;6.90;99.90;;;;;;5094836;28;19938;-70
2022/11/30 01:56:42;;;;;;;;;;;6.90;99.90;;;;;;5094490;28;19908;-69
2022/11/30 01:59:07;;;;;;;;;;;6.90;99.90;;;;;;5094454;28;19908;-69
2022/11/30 02:01:33;;;;;;;;;;;6.80;99.90;;;;;;5094415;28;19908;-68
2022/11/30 02:04:01;;;;;;;;;;;6.80;99.90;;;;;;5094695;28;19952;-68
2022/11/30 02:06:27;;;;;;;;;;;6.70;99.90;;;;;;5094331;28;19915;-69
2022/11/30 02:08:53;;;;;;;;;;;6.70;99.90;;;;;;5094256;28;19908;-68
2022/11/30 02:11:19;;;;;;;;;;;6.70;99.90;;;;;;5094272;28;20331;-68
2022/11/30 02:14:04;;;;;;;;;;;6.60;99.90;;;;;;5094152;28;20006;-68
2022/11/30 02:16:41;;;;;;;;;;;6.50;99.90;;;;;;5094107;28;20365;-69
2022/11/30 02:19:23;;;;;;;;;;;6.60;99.90;;;;;;5076126;28;19908;-69
2022/11/30 02:21:52;;;;;;;;;;;6.50;99.90;;;;;;5094119;28;20368;-69
2022/11/30 02:24:37;;;;;;;;;;;6.50;99.90;;;;;;5093987;28;19943;-69
2022/11/30 02:27:10;;;;;;;;;;;6.50;99.90;;;;;;5093649;28;19908;-69
2022/11/30 02:32:21;;;;;;;;;;;6.40;99.90;;;;;;5071156;28;19912;-66
2022/11/30 02:34:48;;;;;;;;;;;6.40;99.90;;;;;;5070926;28;19939;-65
2022/11/30 02:37:15;;;;;;;;;;;6.30;99.90;;;;;;5070918;28;19915;-66
2022/11/30 02:39:41;;;;;;;;;;;6.30;99.90;;;;;;5070864;28;19947;-66
2022/11/30 02:42:10;;;;;;;;;;;6.30;99.90;;;;;;5070814;28;19939;-65
2022/11/30 02:44:36;;;;;;;;;;;6.30;99.90;;;;;;5070747;28;20354;-65
2022/11/30 02:47:07;;;;;;;;;;;6.30;99.90;;;;;;5070712;28;19909;-66
2022/11/30 02:49:40;;;;;;;;;;;6.30;99.90;;;;;;5070927;28;19995;-65
2022/11/30 02:52:07;;;;;;;;;;;6.30;99.90;;;;;;5070540;28;19964;-65
2022/11/30 02:54:33;;;;;;;;;;;6.30;99.90;;;;;;5070563;28;20003;-66
2022/11/30 02:56:58;;;;;;;;;;;6.20;99.90;;;;;;5070581;28;19934;-65
2022/11/30 02:59:23;;;;;;;;;;;6.30;99.90;;;;;;5070474;28;20011;-65
2022/11/30 03:01:49;;;;;;;;;;;6.30;99.90;;;;;;5086020;28;19916;-66
2022/11/30 03:04:14;;;;;;;;;;;6.30;99.90;;;;;;5070364;28;19908;-65
2022/11/30 03:06:40;;;;;;;;;;;6.30;99.90;;;;;;5070321;28;19948;-66
2022/11/30 03:09:05;;;;;;;;;;;6.20;99.90;;;;;;5070254;28;20363;-66
2022/11/30 03:11:31;;;;;;;;;;;6.30;99.90;;;;;;5070154;28;20358;-65
2022/11/30 03:13:56;;;;;;;;;;;6.30;99.90;;;;;;5070191;28;19920;-66
2022/11/30 03:16:22;;;;;;;;;;;6.30;99.90;;;;;;5070127;28;19909;-66
2022/11/30 03:18:47;;;;;;;;;;;6.30;99.90;;;;;;5070095;28;19909;-66
2022/11/30 03:21:12;;;;;;;;;;;6.30;99.90;;;;;;5070306;28;19912;-66
2022/11/30 03:23:38;;;;;;;;;;;6.30;99.90;;;;;;5085742;28;19909;-65
2022/11/30 03:26:05;;;;;;;;;;;6.30;99.90;;;;;;5070031;28;19912;-66
2022/11/30 03:28:30;;;;;;;;;;;6.30;99.90;;;;;;5070182;28;19913;-65
2022/11/30 03:30:56;;;;;;;;;;;6.30;99.90;;;;;;5079164;28;20439;-66
2022/11/30 03:33:22;;;;;;;;;;;6.30;99.90;;;;;;5090013;28;19950;-65
2022/11/30 03:35:47;;;;;;;;;;;6.30;99.90;;;;;;5089986;28;20313;-65
2022/11/30 03:38:13;;;;;;;;;;;6.30;99.90;;;;;;5089978;28;19909;-66
2022/11/30 03:40:38;;;;;;;;;;;6.30;99.90;;;;;;5089905;28;19908;-66
2022/11/30 03:43:04;;;;;;;;;;;6.30;99.90;;;;;;5079390;28;19913;-65
2022/11/30 03:45:29;;;;;;;;;;;6.30;99.90;;;;;;5076337;28;19916;-66
2022/11/30 03:47:55;;;;;;;;;;;6.30;99.90;;;;;;5076265;28;20358;-66
2022/11/30 03:50:20;;;;;;;;;;;6.30;99.90;;;;;;5076152;28;19923;-66
2022/11/30 03:52:46;;;;;;;;;;;6.30;99.90;;;;;;5076180;28;19916;-65
2022/11/30 03:55:11;;;;;;;;;;;6.30;99.90;;;;;;5058313;28;19954;-66
2022/11/30 03:57:37;;;;;;;;;;;6.30;99.90;;;;;;5058281;28;19943;-65
2022/11/30 04:00:03;;;;;;;;;;;6.30;99.90;;;;;;5076154;28;19935;-66
2022/11/30 04:02:28;;;;;;;;;;;6.30;99.90;;;;;;5058454;28;20336;-66
2022/11/30 04:04:54;;;;;;;;;;;6.30;99.90;;;;;;5075971;28;19944;-66
2022/11/30 04:07:19;;;;;;;;;;;6.30;99.90;;;;;;5058358;28;19915;-66
2022/11/30 04:09:45;;;;;;;;;;;6.30;99.90;;;;;;5075904;28;19956;-66
2022/11/30 04:12:10;;;;;;;;;;;6.30;99.90;;;;;;5075761;28;19912;-66
2022/11/30 04:14:35;;;;;;;;;;;6.40;99.90;;;;;;5057828;28;19912;-65
2022/11/30 04:17:01;;;;;;;;;;;6.40;99.90;;;;;;5075757;28;19908;-66
2022/11/30 04:19:26;;;;;;;;;;;6.40;99.90;;;;;;5076015;28;19920;-66
2022/11/30 04:21:52;;;;;;;;;;;6.40;99.90;;;;;;5075667;28;19908;-66
2022/11/30 04:24:17;;;;;;;;;;;6.30;99.90;;;;;;5075597;28;19995;-66
2022/11/30 04:26:44;;;;;;;;;;;6.30;99.90;;;;;;5075847;28;20428;-66
2022/11/30 04:29:10;;;;;;;;;;;6.40;99.90;;;;;;5075521;28;19962;-66
2022/11/30 04:31:35;;;;;;;;;;;6.30;99.90;;;;;;5075256;28;19924;-66
2022/11/30 04:34:01;;;;;;;;;;;6.30;99.90;;;;;;5075358;28;20251;-66
2022/11/30 04:36:26;;;;;;;;;;;6.30;99.90;;;;;;5075374;28;19912;-65
2022/11/30 04:38:52;;;;;;;;;;;6.30;99.90;;;;;;5075454;28;19954;-66
2022/11/30 04:41:17;;;;;;;;;;;6.30;99.90;;;;;;5057449;28;20289;-66
2022/11/30 04:43:43;;;;;;;;;;;6.30;99.90;;;;;;5075202;28;19908;-65
2022/11/30 04:46:08;;;;;;;;;;;6.30;99.90;;;;;;5075204;28;19908;-65
2022/11/30 04:48:34;;;;;;;;;;;6.30;99.90;;;;;;5075160;28;19982;-65
2022/11/30 04:51:01;;;;;;;;;;;6.30;99.90;;;;;;5057317;28;20382;-65
2022/11/30 04:53:27;;;;;;;;;;;6.30;99.90;;;;;;5074378;28;19909;-66
2022/11/30 04:55:52;;;;;;;;;;;6.30;99.90;;;;;;5074637;28;20419;-66
2022/11/30 04:58:18;;;;;;;;;;;6.30;99.90;;;;;;5074931;28;19916;-66
2022/11/30 05:00:43;;;;;;;;;;;6.30;99.90;;;;;;5074942;28;19909;-65
2022/11/30 05:03:09;;;;;;;;;;;6.30;99.90;;;;;;5075091;28;19934;-66
2022/11/30 05:05:34;;;;;;;;;;;6.30;99.90;;;;;;5056910;28;20415;-66
2022/11/30 05:07:59;;;;;;;;;;;6.30;99.90;;;;;;5074762;28;20255;-66
2022/11/30 05:10:26;;;;;;;;;;;6.30;99.90;;;;;;5074612;28;19922;-66
2022/11/30 05:12:52;;;;;;;;;;;6.30;99.90;;;;;;5074659;28;19909;-65
2022/11/30 05:15:18;;;;;;;;;;;6.30;99.90;;;;;;5056708;28;19912;-66
2022/11/30 05:17:43;;;;;;;;;;;6.30;99.90;;;;;;5074851;28;20061;-66
2022/11/30 05:20:09;;;;;;;;;;;6.30;99.90;;;;;;5074488;28;20011;-65
2022/11/30 05:22:35;;;;;;;;;;;6.30;99.90;;;;;;5074705;28;20003;-65
2022/11/30 05:25:00;;;;;;;;;;;6.30;99.90;;;;;;5074412;28;19909;-65
2022/11/30 05:27:25;;;;;;;;;;;6.30;99.90;;;;;;5056485;28;19995;-66
2022/11/30 05:29:51;;;;;;;;;;;6.30;99.90;;;;;;5074102;28;20385;-66
2022/11/30 05:32:16;;;;;;;;;;;6.30;99.90;;;;;;5074217;28;19916;-66
2022/11/30 05:34:42;;;;;;;;;;;6.30;99.90;;;;;;5074491;28;19909;-66
2022/11/30 05:37:07;;;;;;;;;;;6.30;99.90;;;;;;5074200;28;19909;-66
2022/11/30 05:39:33;;;;;;;;;;;6.30;99.90;;;;;;5074459;28;19912;-66
2022/11/30 05:41:58;;;;;;;;;;;6.30;99.90;;;;;;5074394;28;19946;-65
2022/11/30 05:44:24;;;;;;;;;;;6.30;99.90;;;;;;5074070;28;20438;-66
2022/11/30 05:46:49;;;;;;;;;;;6.30;99.90;;;;;;5074039;28;19908;-66
2022/11/30 05:49:15;;;;;;;;;;;6.30;99.90;;;;;;5074274;28;19957;-66
2022/11/30 05:51:40;;;;;;;;;;;6.30;99.90;;;;;;5073914;28;20389;-66
2022/11/30 05:54:06;;;;;;;;;;;6.30;99.90;;;;;;5074155;28;19909;-66
2022/11/30 05:56:31;;;;;;;;;;;6.30;99.90;;;;;;5074101;28;19923;-66
2022/11/30 05:58:56;;;;;;;;;;;6.30;99.90;;;;;;5073865;28;19940;-65
2022/11/30 06:01:23;;;;;;;;;;;6.30;99.90;;;;;;5073811;28;19912;-65
2022/11/30 06:03:49;;;;;;;;;;;6.30;99.90;;;;;;5056144;28;19915;-66
2022/11/30 06:06:14;;;;;;;;;;;6.40;99.90;;;;;;5073521;28;19908;-66
2022/11/30 06:08:40;;;;;;;;;;;6.40;99.90;;;;;;5073678;28;20392;-66
2022/11/30 06:11:05;;;;;;;;;;;6.30;99.90;;;;;;5073642;28;19919;-66
2022/11/30 06:13:31;;;;;;;;;;;6.30;99.90;;;;;;5073632;28;19909;-66
2022/11/30 06:15:57;;;;;;;;;;;6.40;99.90;;;;;;5073912;28;19913;-66
2022/11/30 06:18:23;;;;;;;;;;;6.40;99.90;;;;;;5073611;28;19951;-66
2022/11/30 06:20:48;;;;;;;;;;;6.40;99.90;;;;;;5073583;28;19909;-66
2022/11/30 06:23:14;;;;;;;;;;;6.40;99.90;;;;;;5073555;28;19912;-65
2022/11/30 06:25:39;;;;;;;;;;;6.30;99.90;;;;;;5073536;28;19920;-65
2022/11/30 06:28:07;;;;;;;;;;;6.40;99.90;;;;;;5073828;28;19936;-67
2022/11/30 06:30:33;;;;;;;;;;;6.30;99.90;;;;;;5073364;28;19928;-66
2022/11/30 06:32:58;;;;;;;;;;;6.40;99.90;;;;;;5073752;28;19909;-66
2022/11/30 06:35:24;;;;;;;;;;;6.30;99.90;;;;;;5073466;28;19915;-66
2022/11/30 06:37:50;;;;;;;;;;;6.30;99.90;;;;;;5073396;28;19916;-66
2022/11/30 06:40:16;;;;;;;;;;;6.30;99.90;;;;;;5073349;28;19915;-66
2022/11/30 06:42:41;;;;;;;;;;;6.30;99.90;;;;;;5073339;28;19909;-66
2022/11/30 06:45:07;;;;;;;;;;;6.30;99.90;;;;;;5073360;28;19958;-65
2022/11/30 06:47:33;;;;;;;;;;;6.40;99.90;;;;;;5073610;28;19909;-65
2022/11/30 06:49:58;;;;;;;;;;;6.40;99.90;;;;;;5073268;28;19958;-66
2022/11/30 06:52:24;;;;;;;;;;;6.30;99.90;;;;;;5063827;28;19920;-66
2022/11/30 06:54:49;;;;;;;;;;;6.30;99.90;;;;;;5041587;28;20003;-68
2022/11/30 06:57:15;;;;;;;;;;;6.40;99.90;;;;;;5068546;28;20285;-66
2022/11/30 06:59:42;;;;;;;;;;;6.30;99.90;;;;;;5072822;28;19942;-66
2022/11/30 07:02:10;;;;;;;;;;;6.30;99.90;;;;;;5073030;28;19913;-65
2022/11/30 07:04:35;;;;;;;;;;;6.40;99.90;;;;;;5055096;28;20270;-66
2022/11/30 07:07:01;;;;;;;;;;;6.40;99.90;;;;;;5054044;28;19923;-65
2022/11/30 07:09:26;;;;;;;;;;;6.40;99.90;;;;;;5052760;28;20390;-65
2022/11/30 07:11:51;;;;;;;;;;;6.40;99.90;;;;;;5053059;28;19916;-65
2022/11/30 07:14:17;;;;;;;;;;;6.40;99.90;;;;;;5052969;28;19912;-65
2022/11/30 07:16:42;;;;;;;;;;;6.40;99.90;;;;;;5059962;28;19913;-65
2022/11/30 07:19:08;;;;;;;;;;;6.40;99.90;;;;;;5076565;28;19908;-65
2022/11/30 07:21:33;;;;;;;;;;;6.40;99.90;;;;;;5053723;28;19920;-66
2022/11/30 07:26:44;;;;;;;;;;;6.40;99.90;;;;;;5056243;28;19955;-65
2022/11/30 07:29:09;;;;;;;;;;;6.50;99.90;;;;;;5062745;28;19913;-65
2022/11/30 07:31:35;;;;;;;;;;;6.50;99.90;;;;;;5047762;28;19927;-66
2022/11/30 07:34:03;;;;;;;;;;;6.40;99.90;;;;;;5069330;28;20006;-65
2022/11/30 07:36:30;;;;;;;;;;;6.50;99.90;;;;;;5066669;28;19913;-68
2022/11/30 07:38:56;;;;;;;;;;;6.50;99.90;;;;;;5075153;28;19966;-67
2022/11/30 07:41:21;;;;;;;;;;;6.50;99.90;;;;;;5076172;28;19908;-69
2022/11/30 07:43:47;;;;;;;;;;;6.50;99.90;;;;;;5058314;28;20290;-69
2022/11/30 07:46:13;;;;;;;;;;;6.40;99.90;;;;;;5075201;28;19974;-67
2022/11/30 07:48:39;;;;;;;;;;;6.50;99.90;;;;;;5075576;28;21300;-65
2022/11/30 07:51:06;;;;;;;;;;;6.50;99.90;;;;;;5075620;28;20011;-65
2022/11/30 07:53:31;;;;;;;;;;;6.50;99.90;;;;;;5074362;28;20012;-65
2022/11/30 07:56:05;;;;;;;;;;;6.50;99.90;;;;;;5070135;28;20007;-66
2022/11/30 07:58:31;;;;;;;;;;;6.50;99.90;;;;;;5059333;28;19913;-65
2022/11/30 08:01:04;;;;;;;;;;;6.50;99.90;;;;;;5059385;28;20397;-66
2022/11/30 08:03:31;;;;;;;;;;;6.50;99.90;;;;;;5074722;28;19919;-68
2022/11/30 08:06:00;;;;;;;;;;;6.50;99.90;;;;;;5063809;28;19935;-67
2022/11/30 08:08:28;;;;;;;;;;;6.50;99.90;;;;;;5067497;28;20389;-67
2022/11/30 08:10:55;;;;;;;;;;;6.50;99.90;;;;;;5071595;28;19917;-68
2022/11/30 08:13:20;;;;;;;;;;;6.60;99.90;;;;;;5068253;28;20397;-66
2022/11/30 08:15:46;;;;;;;;;;;6.50;99.90;;;;;;5072077;28;19916;-66
2022/11/30 08:18:11;;;;;;;;;;;6.60;99.90;;;;;;5072749;28;20361;-65
2022/11/30 08:20:37;;;;;;;;;;;6.60;99.90;;;;;;5064805;28;19917;-66
2022/11/30 08:23:02;;;;;;;;;;;6.60;99.90;;;;;;5063502;28;19966;-69
2022/11/30 08:25:28;;;;;;;;;;;6.60;99.90;;;;;;5068402;28;19913;-68
2022/11/30 08:27:53;;;;;;;;;;;6.60;99.90;;;;;;5058531;28;20005;-67
2022/11/30 08:30:19;;;;;;;;;;;6.60;99.90;;;;;;5065716;28;19924;-67
2022/11/30 08:32:44;;;;;;;;;;;6.70;99.90;;;;;;5073415;28;19905;-67
2022/11/30 08:35:09;;;;;;;;;;;6.60;99.90;;;;;;5070703;28;19916;-68
2022/11/30 08:37:36;;;;;;;;;;;6.60;99.90;;;;;;5067593;28;19966;-67
2022/11/30 08:40:02;;;;;;;;;;;6.60;99.90;;;;;;5066610;28;20370;-67
2022/11/30 08:42:27;;;;;;;;;;;6.60;99.90;;;;;;5056651;28;19982;-67
2022/11/30 08:44:53;;;;;;;;;;;6.60;99.90;;;;;;5057520;28;19943;-67
2022/11/30 08:47:18;;;;;;;;;;;6.60;99.90;;;;;;5072979;28;19942;-69
2022/11/30 08:49:44;;;;;;;;;;;6.60;99.90;;;;;;5070026;28;19913;-67
2022/11/30 08:52:09;;;;;;;;;;;6.70;99.90;;;;;;5077236;28;20415;-68
2022/11/30 08:54:35;;;;;;;;;;;6.60;99.90;;;;;;5067816;28;20289;-69
2022/11/30 08:57:00;;;;;;;;;;;6.70;99.90;;;;;;5070594;28;19919;-68
2022/11/30 08:59:26;;;;;;;;;;;6.70;99.90;;;;;;5072923;28;20301;-68
2022/11/30 09:01:51;;;;;;;;;;;6.70;99.90;;;;;;5072423;28;19919;-68
2022/11/30 09:04:17;;;;;;;;;;;6.80;99.90;;;;;;5073825;28;19920;-67
2022/11/30 09:06:42;;;;;;;;;;;6.80;99.90;;;;;;5071872;28;20050;-65
2022/11/30 09:09:08;;;;;;;;;;;6.80;99.90;;;;;;5073431;28;19955;-68
2022/11/30 09:11:33;;;;;;;;;;;6.90;99.90;;;;;;5063089;28;19916;-67
2022/11/30 09:14:00;;;;;;;;;;;6.90;99.90;;;;;;5070159;28;19920;-67
2022/11/30 09:16:27;;;;;;;;;;;6.80;99.90;;;;;;5061543;28;19919;-67
2022/11/30 09:18:52;;;;;;;;;;;6.80;99.90;;;;;;5055045;28;19919;-68
2022/11/30 09:21:20;;;;;;;;;;;6.90;99.90;;;;;;5047755;28;20333;-68
2022/11/30 09:23:46;;;;;;;;;;;6.90;99.90;;;;;;5035462;28;19912;-67
2022/11/30 09:26:13;;;;;;;;;;;6.90;99.90;;;;;;5060669;28;19913;-66
2022/11/30 09:28:39;;;;;;;;;;;6.90;99.90;;;;;;5052832;28;19913;-65
2022/11/30 09:31:07;;;;;;;;;;;6.90;99.90;;;;;;5070318;28;19928;-66
2022/11/30 09:33:33;;;;;;;;;;;6.90;99.90;;;;;;5073360;28;20403;-66
2022/11/30 09:35:59;;;;;;;;;;;6.90;99.90;;;;;;5068782;28;19916;-68
2022/11/30 09:38:25;;;;;;;;;;;6.90;99.90;;;;;;5064505;28;20370;-67
2022/11/30 09:40:54;;;;;;;;;;;6.80;99.90;;;;;;5058140;28;19958;-67
2022/11/30 09:43:39;;;;;;;;;;;6.80;99.90;;;;;;5064538;28;19913;-66
2022/11/30 09:46:05;;;;;;;;;;;6.80;99.90;;;;;;5055730;28;19917;-66
2022/11/30 09:48:41;;;;;;;;;;;6.80;99.90;;;;;;5054848;28;19947;-65
2022/11/30 09:51:10;;;;;;;;;;;6.80;99.90;;;;;;5064733;28;19963;-66
2022/11/30 09:53:40;;;;;;;;;;;6.80;99.90;;;;;;5068570;28;19912;-65
2022/11/30 09:56:17;;;;;;;;;;;6.80;99.90;;;;;;5073627;28;19908;-67
2022/11/30 09:58:46;;;;;;;;;;;6.80;99.90;;;;;;5067661;28;19913;-68
2022/11/30 10:01:15;;;;;;;;;;;6.80;99.90;;;;;;5066811;28;19930;-69
2022/11/30 10:03:41;;;;;;;;;;;6.80;99.90;;;;;;5053414;28;19919;-67
2022/11/30 10:06:09;;;;;;;;;;;6.80;99.90;;;;;;5070709;28;19913;-67
2022/11/30 10:08:55;;;;;;;;;;;6.80;99.90;;;;;;5068206;28;19916;-69
2022/11/30 10:11:41;;;;;;;;;;;6.90;99.90;;;;;;5069405;28;19916;-66
2022/11/30 10:14:20;;;;;;;;;;;6.80;99.90;;;;;;5070679;28;19912;-67
2022/11/30 10:16:55;;;;;;;;;;;6.80;99.90;;;;;;5056478;28;19924;-68
2022/11/30 10:19:38;;;;;;;;;;;6.70;99.90;;;;;;5069812;28;19921;-68
2022/11/30 10:22:24;;;;;;;;;;;6.70;99.90;;;;;;5065245;28;20015;-66
2022/11/30 10:25:11;;;;;;;;;;;6.70;99.90;;;;;;5055069;28;19912;-68
2022/11/30 10:27:53;;;;;;;;;;;6.70;99.90;;;;;;5051009;28;20297;-67
2022/11/30 10:30:21;;;;;;;;;;;6.70;99.90;;;;;;5070258;28;19994;-67
2022/11/30 10:32:49;;;;;;;;;;;6.70;99.90;;;;;;5070014;28;19928;-67
2022/11/30 10:35:19;;;;;;;;;;;6.70;99.90;;;;;;5068849;28;19913;-68
2022/11/30 10:37:45;;;;;;;;;;;6.70;99.90;;;;;;5071932;28;19935;-68
2022/11/30 10:40:15;;;;;;;;;;;6.70;99.90;;;;;;5070848;28;20460;-68
2022/11/30 10:42:44;;;;;;;;;;;6.80;99.90;;;;;;5071874;28;19912;-67
2022/11/30 10:45:11;;;;;;;;;;;6.70;99.90;;;;;;5069370;28;20389;-68
2022/11/30 10:47:40;;;;;;;;;;;6.70;99.90;;;;;;5072396;28;19916;-68
2022/11/30 10:50:06;;;;;;;;;;;6.80;99.90;;;;;;5072107;28;19917;-67
2022/11/30 10:52:39;;;;;;;;;;;6.80;99.90;;;;;;5055333;28;19913;-68
2022/11/30 10:55:11;;;;;;;;;;;6.70;99.90;;;;;;5074289;28;19962;-67
2022/11/30 10:57:37;;;;;;;;;;;6.80;99.90;;;;;;5077287;28;19909;-67
2022/11/30 11:00:05;;;;;;;;;;;6.70;99.90;;;;;;5075077;28;19913;-67
2022/11/30 11:02:47;;;;;;;;;;;6.70;99.90;;;;;;5076771;28;19912;-67
2022/11/30 11:05:15;;;;;;;;;;;6.80;99.90;;;;;;5075966;28;19912;-67
2022/11/30 11:07:54;;;;;;;;;;;6.80;99.90;;;;;;5076795;28;19917;-67
2022/11/30 11:10:23;;;;;;;;;;;6.70;99.90;;;;;;5072594;28;20012;-67
2022/11/30 11:12:50;;;;;;;;;;;6.70;99.90;;;;;;5074945;28;20267;-68
2022/11/30 11:15:18;;;;;;;;;;;6.70;99.90;;;;;;5072012;28;19920;-68
2022/11/30 11:17:44;;;;;;;;;;;6.70;99.90;;;;;;5075772;28;19912;-67
2022/11/30 11:20:29;;;;;;;;;;;6.80;99.90;;;;;;5073783;28;20018;-67
2022/11/30 11:22:55;;;;;;;;;;;6.70;99.90;;;;;;5068531;28;19913;-67
2022/11/30 11:25:24;;;;;;;;;;;6.60;99.90;;;;;;5038962;28;19963;-68
2022/11/30 11:27:51;;;;;;;;;;;6.70;99.90;;;;;;5071398;28;19959;-66
2022/11/30 11:30:27;;;;;;;;;;;6.80;99.90;;;;;;5068758;28;19913;-68
2022/11/30 11:33:12;;;;;;;;;;;6.80;99.90;;;;;;5074012;28;20421;-67
2022/11/30 11:35:40;;;;;;;;;;;6.80;99.90;;;;;;5073586;28;20414;-67
2022/11/30 11:38:17;;;;;;;;;;;6.70;99.90;;;;;;5074579;28;19913;-68
2022/11/30 11:40:50;;;;;;;;;;;6.80;99.90;;;;;;5075602;28;20345;-68
2022/11/30 11:43:16;;;;;;;;;;;6.80;99.90;;;;;;5075121;28;19960;-68
2022/11/30 11:45:48;;;;;;;;;;;6.80;99.90;;;;;;5076377;28;20401;-67
2022/11/30 11:48:32;;;;;;;;;;;6.90;99.90;;;;;;5074752;28;20346;-67
2022/11/30 11:50:59;;;;;;;;;;;6.90;99.90;;;;;;5075612;28;19916;-67
2022/11/30 11:53:42;;;;;;;;;;;6.90;99.90;;;;;;5071692;28;19919;-67
2022/11/30 11:56:12;;;;;;;;;;;6.90;99.90;;;;;;5057818;28;20379;-68
2022/11/30 11:58:58;;;;;;;;;;;6.90;99.90;;;;;;5073501;28;19916;-68
2022/11/30 12:01:43;;;;;;;;;;;6.90;99.90;;;;;;5075326;28;19913;-67
2022/11/30 12:04:18;;;;;;;;;;;6.80;99.90;;;;;;5063076;28;19919;-67
2022/11/30 12:06:44;;;;;;;;;;;6.80;99.90;;;;;;5075613;28;19919;-67
2022/11/30 12:09:19;;;;;;;;;;;6.80;99.90;;;;;;5073569;28;20358;-67
2022/11/30 12:11:46;;;;;;;;;;;6.80;99.90;;;;;;5074214;28;20384;-67
2022/11/30 12:14:12;;;;;;;;;;;6.80;99.90;;;;;;5072107;28;19955;-67
2022/11/30 12:16:58;;;;;;;;;;;6.70;99.90;;;;;;5074328;28;20605;-67
2022/11/30 12:19:34;;;;;;;;;;;6.70;99.90;;;;;;5063906;28;19912;-67
2022/11/30 12:22:06;;;;;;;;;;;6.80;99.90;;;;;;5071435;28;20382;-67
2022/11/30 12:24:39;;;;;;;;;;;6.70;99.90;;;;;;5064550;28;19920;-67
2022/11/30 12:27:25;;;;;;;;;;;6.70;99.90;;;;;;5037533;28;19923;-67
2022/11/30 12:30:10;;;;;;;;;;;6.70;99.90;;;;;;5070521;28;19958;-67
2022/11/30 12:32:51;;;;;;;;;;;6.70;99.90;;;;;;5069800;28;19927;-67
2022/11/30 12:35:35;;;;;;;;;;;6.70;99.90;;;;;;5054260;28;19917;-68
2022/11/30 12:38:11;;;;;;;;;;;6.70;99.90;;;;;;5075471;28;19918;-67
2022/11/30 12:40:44;;;;;;;;;;;6.80;99.90;;;;;;5054004;28;19913;-69
2022/11/30 12:43:23;;;;;;;;;;;6.70;99.90;;;;;;5057555;28;19921;-69
2022/11/30 12:45:50;;;;;;;;;;;6.70;99.90;;;;;;5064702;28;20381;-68
2022/11/30 12:48:37;;;;;;;;;;;6.60;99.90;;;;;;5077874;28;19939;-69
2022/11/30 12:51:07;;;;;;;;;;;6.60;99.90;;;;;;5085071;28;19912;-69
2022/11/30 12:53:45;;;;;;;;;;;6.60;99.90;;;;;;5074974;28;19909;-69
2022/11/30 12:58:58;;;;;;;;;;;6.60;99.90;;;;;;5069398;27;19917;-68
2022/11/30 13:04:27;;;;;;;;;;;6.60;99.90;;;;;;5106609;27;19912;-72
2022/11/30 13:06:57;;;;;;;;;;;6.60;99.90;;;;;;5106017;28;19920;-70
2022/11/30 13:09:27;;;;;;;;;;;6.60;99.90;;;;;;5090251;28;20363;-69
2022/11/30 13:11:56;;;;;;;;;;;6.60;99.90;;;;;;5077979;28;20390;-69
2022/11/30 13:14:22;;;;;;;;;;;6.60;99.90;;;;;;5081839;28;20302;-69
2022/11/30 13:16:51;;;;;;;;;;;6.60;99.90;;;;;;5075973;28;19919;-71
2022/11/30 13:19:36;;;;;;;;;;;6.60;99.90;;;;;;5094726;28;19964;-70
2022/11/30 13:22:05;;;;;;;;;;;6.60;99.90;;;;;;5098083;28;19923;-70
2022/11/30 13:24:36;;;;;;;;;;;6.60;99.90;;;;;;5101959;28;19912;-70
2022/11/30 13:27:08;;;;;;;;;;;6.60;99.90;;;;;;5084051;28;19955;-70
2022/11/30 13:29:54;;;;;;;;;;;6.60;99.90;;;;;;5089422;28;19913;-70
2022/11/30 13:32:20;;;;;;;;;;;6.60;99.90;;;;;;5090790;28;19938;-70
2022/11/30 13:34:45;;;;;;;;;;;6.60;99.90;;;;;;5107260;28;19913;-70
2022/11/30 13:37:12;;;;;;;;;;;6.60;99.90;;;;;;5101311;28;20281;-70
2022/11/30 13:39:46;;;;;;;;;;;6.50;99.90;;;;;;5108541;28;19918;-70
2022/11/30 13:42:19;;;;;;;;;;;6.50;99.90;;;;;;5100563;28;20003;-70
2022/11/30 13:44:44;;;;;;;;;;;6.50;99.90;;;;;;5082724;28;20370;-70
2022/11/30 13:47:15;;;;;;;;;;;6.50;99.90;;;;;;5080354;28;19989;-71
2022/11/30 13:49:41;;;;;;;;;;;6.50;99.90;;;;;;5098334;28;19958;-72
2022/11/30 13:52:10;;;;;;;;;;;6.50;99.90;;;;;;5098468;28;19912;-72
2022/11/30 13:54:44;;;;;;;;;;;6.50;99.90;;;;;;5083788;28;19919;-71
2022/11/30 13:57:29;;;;;;;;;;;6.40;99.90;;;;;;5088944;28;19912;-73
2022/11/30 13:59:57;;;;;;;;;;;6.50;99.90;;;;;;5089086;28;19963;-70
2022/11/30 14:08:10;;;;;;;;;;;6.40;99.90;;;;;;5070435;27;19916;-69
2022/11/30 14:10:37;;;;;;;;;;;6.40;99.90;;;;;;5074456;28;20072;-73
2022/11/30 14:13:23;;;;;;;;;;;6.30;99.90;;;;;;5052262;28;20298;-71
2022/11/30 14:18:42;;;;;;;;;;;6.40;99.90;;;;;;5091147;27;19923;-70
2022/11/30 14:21:27;;;;;;;;;;;6.40;99.90;;;;;;5073423;28;19920;-68
2022/11/30 14:23:55;;;;;;;;;;;6.30;99.90;;;;;;5090967;28;19931;-67
2022/11/30 14:26:24;;;;;;;;;;;6.30;99.90;;;;;;5085590;28;19915;-68
2022/11/30 14:28:56;;;;;;;;;;;6.20;99.90;;;;;;5088516;28;19920;-67
2022/11/30 14:31:24;;;;;;;;;;;6.30;99.90;;;;;;5087949;28;19913;-67
2022/11/30 14:33:54;;;;;;;;;;;6.30;99.90;;;;;;5090578;28;19944;-67
2022/11/30 14:36:20;;;;;;;;;;;6.30;99.90;;;;;;5085527;28;19920;-67
2022/11/30 14:38:46;;;;;;;;;;;6.30;99.90;;;;;;5089977;28;19913;-67
2022/11/30 14:41:20;;;;;;;;;;;6.20;99.90;;;;;;5078524;28;20268;-67
2022/11/30 14:44:05;;;;;;;;;;;6.20;99.90;;;;;;5050490;28;19942;-67
2022/11/30 14:46:33;;;;;;;;;;;6.20;99.90;;;;;;5072049;28;19923;-68
2022/11/30 14:49:03;;;;;;;;;;;6.20;99.90;;;;;;5089874;28;19912;-66
2022/11/30 14:51:28;;;;;;;;;;;6.20;99.90;;;;;;5086410;28;20357;-67
2022/11/30 14:53:59;;;;;;;;;;;6.20;99.90;;;;;;5089507;28;19915;-67
2022/11/30 14:56:30;;;;;;;;;;;6.20;99.90;;;;;;5088713;28;19920;-68
2022/11/30 14:59:15;;;;;;;;;;;6.20;99.90;;;;;;5087368;28;19908;-68